Time;durP1;ratioP1;P1;durP2;ratioP2;P2;SDS_P1;SDS_P2;PMS_P1;PMS_P2;Temp;Humidity;BMP_temperature;BMP_pressure;BME280_temperature;BME280_humidity;BME280_pressure;Samples;Min_cycle;Max_cycle;Signal;HPM_P1;HPM_P2
2022/12/07 00:01:41;;;;;;;23.10;10.30;;;;;;;5.98;70.46;99224.84;5123056;29;20057;-72
2022/12/07 00:04:31;;;;;;;23.10;10.35;;;;;;;5.88;69.91;99229.03;5133580;28;20536;-71
2022/12/07 00:07:21;;;;;;;18.30;9.95;;;;;;;5.58;71.15;99206.56;5114424;28;20122;-71
2022/12/07 00:10:16;;;;;;;17.65;10.15;;;;;;;5.72;71.14;99212.66;5131066;28;20061;-72
2022/12/07 00:13:06;;;;;;;24.05;10.18;;;;;;;5.62;70.91;99180.88;5122611;29;20671;-71
2022/12/07 00:16:00;;;;;;;18.80;10.23;;;;;;;5.84;70.24;99214.44;5122163;29;20054;-70
2022/12/07 00:18:50;;;;;;;18.25;9.52;;;;;;;5.85;70.02;99214.31;5123932;28;20058;-72
2022/12/07 00:21:41;;;;;;;19.33;9.80;;;;;;;5.84;70.34;99215.25;5121282;29;20047;-71
2022/12/07 00:24:30;;;;;;;20.75;9.80;;;;;;;5.71;70.88;99216.25;5122459;29;20078;-71
2022/12/07 00:27:20;;;;;;;23.15;10.13;;;;;;;5.73;69.46;99207.28;5110759;28;20062;-71
2022/12/07 00:30:11;;;;;;;17.17;9.10;;;;;;;5.83;70.24;99215.38;5124599;28;20113;-71
2022/12/07 00:33:01;;;;;;;22.55;9.65;;;;;;;5.77;70.14;99210.56;5121881;29;20095;-71
2022/12/07 00:35:56;;;;;;;17.75;9.82;;;;;;;5.64;70.47;99213.19;5121392;28;20059;-72
2022/12/07 00:38:46;;;;;;;18.35;10.15;;;;;;;5.64;71.15;99207.94;5127832;28;20065;-73
2022/12/07 00:41:37;;;;;;;21.33;9.82;;;;;;;5.68;70.13;99206.75;5125378;28;20130;-71
2022/12/07 00:44:26;;;;;;;19.27;10.40;;;;;;;5.71;70.32;99205.72;5115040;29;20063;-72
2022/12/07 00:47:16;;;;;;;21.80;10.27;;;;;;;5.60;70.42;99204.69;5121366;28;20102;-71
2022/12/07 00:50:07;;;;;;;18.00;9.30;;;;;;;5.49;70.55;99207.19;5125522;28;20146;-72
2022/12/07 00:52:57;;;;;;;22.90;9.70;;;;;;;5.58;71.31;99211.81;5118067;29;20525;-71
2022/12/07 00:55:47;;;;;;;23.27;10.57;;;;;;;5.54;71.19;99213.00;5121890;29;20074;-72
2022/12/07 00:58:36;;;;;;;19.52;10.25;;;;;;;5.45;69.91;99189.97;5130175;28;20212;-72
2022/12/07 01:01:29;;;;;;;20.35;10.07;;;;;;;5.60;70.97;99217.00;5132121;28;20055;-72
2022/12/07 01:04:19;;;;;;;16.75;9.82;;;;;;;5.57;70.27;99220.66;5121620;29;20134;-72
2022/12/07 01:07:09;;;;;;;19.40;9.80;;;;;;;5.53;70.54;99208.69;5120880;29;20501;-71
2022/12/07 01:09:59;;;;;;;18.55;10.10;;;;;;;5.60;69.99;99211.72;5127542;28;20098;-72
2022/12/07 01:12:49;;;;;;;19.60;9.88;;;;;;;5.62;69.61;99207.19;5121626;29;20530;-71
2022/12/07 01:15:41;;;;;;;18.23;10.80;;;;;;;5.59;69.84;99210.88;5121694;29;20082;-73
2022/12/07 01:18:34;;;;;;;19.77;10.48;;;;;;;5.65;70.52;99210.44;5128894;28;20057;-70
2022/12/07 01:21:34;;;;;;;21.92;10.70;;;;;;;5.53;70.61;99213.94;5106100;29;20062;-70
2022/12/07 01:24:24;;;;;;;19.20;10.43;;;;;;;5.38;70.45;99193.97;5121921;29;20086;-71
2022/12/07 01:27:14;;;;;;;21.85;10.30;;;;;;;5.53;70.64;99213.94;5121326;29;20062;-73
2022/12/07 01:30:06;;;;;;;19.95;10.25;;;;;;;5.52;70.97;99211.41;5133201;28;20050;-72
2022/12/07 01:32:56;;;;;;;21.30;11.25;;;;;;;5.45;69.82;99199.63;5121321;29;20694;-70
2022/12/07 01:35:46;;;;;;;22.25;10.63;;;;;;;5.35;70.72;99225.72;5108426;29;20047;-71
2022/12/07 01:38:36;;;;;;;20.65;10.98;;;;;;;5.53;70.29;99220.97;5128505;28;20699;-72
2022/12/07 01:41:29;;;;;;;21.25;10.80;;;;;;;5.54;70.47;99220.03;5120188;29;20171;-71
2022/12/07 01:44:30;;;;;;;21.13;11.23;;;;;;;5.55;70.30;99219.09;5120707;29;20058;-72
2022/12/07 01:47:20;;;;;;;22.55;10.60;;;;;;;5.50;70.07;99223.84;5121200;28;20073;-72
2022/12/07 01:50:10;;;;;;;20.23;11.20;;;;;;;5.33;71.17;99224.97;5133948;28;20563;-71
2022/12/07 01:53:05;;;;;;;21.60;10.48;;;;;;;5.47;69.86;99230.16;5125329;29;20058;-73
2022/12/07 01:55:56;;;;;;;19.10;10.55;;;;;;;5.49;69.44;99220.34;5124642;29;20469;-71
2022/12/07 01:58:47;;;;;;;21.00;10.48;;;;;;;5.45;70.71;99210.16;5128130;28;20051;-73
2022/12/07 02:01:37;;;;;;;22.05;11.00;;;;;;;5.54;70.07;99228.78;5109919;29;20047;-71
2022/12/07 02:04:29;;;;;;;24.85;11.20;;;;;;;5.41;70.20;99226.16;5117830;29;20052;-71
2022/12/07 02:07:20;;;;;;;21.92;10.98;;;;;;;5.34;70.61;99224.88;5122912;28;20065;-72
2022/12/07 02:10:20;;;;;;;19.83;10.48;;;;;;;5.36;70.52;99223.00;5126733;28;20536;-70
2022/12/07 02:13:18;;;;;;;26.38;11.20;;;;;;;5.40;70.16;99218.38;5124881;29;20058;-71
2022/12/07 02:16:11;;;;;;;20.80;11.05;;;;;;;5.30;70.08;99215.53;5125022;29;20498;-71
2022/12/07 02:19:35;;;;;;;22.20;10.95;;;;;;;5.29;70.30;99215.63;5126950;28;20070;-72
2022/12/07 02:23:00;;;;;;;23.45;10.98;;;;;;;5.40;70.50;99218.38;5103816;29;20488;-72
2022/12/07 02:26:20;;;;;;;27.33;12.13;;;;;;;5.38;70.37;99215.00;5103790;29;20055;-73
2022/12/07 02:32:42;;;;;;;23.77;11.48;;;;;;;5.37;70.12;99208.06;5106467;29;20130;-72
2022/12/07 02:35:53;;;;;;;23.25;11.52;;;;;;;5.45;69.76;99202.28;5096685;29;20544;-70
2022/12/07 02:38:50;;;;;;;26.58;11.48;;;;;;;5.50;70.19;99201.00;5098968;29;20528;-71
2022/12/07 02:41:46;;;;;;;23.95;11.95;;;;;;;5.42;70.03;99196.25;5123111;28;20513;-73
2022/12/07 02:44:37;;;;;;;25.42;11.27;;;;;;;5.44;69.55;99180.41;5114212;28;20051;-70
2022/12/07 02:47:31;;;;;;;26.02;11.10;;;;;;;5.29;70.35;99197.22;5123007;29;20051;-71
2022/12/07 02:50:21;;;;;;;24.63;10.25;;;;;;;5.32;71.17;99189.97;5140203;28;20497;-71
2022/12/07 02:53:41;;;;;;;23.42;11.02;;;;;;;5.37;70.00;99179.16;5139661;28;20153;-72
2022/12/07 02:56:43;;;;;;;26.58;11.18;;;;;;;5.28;69.80;99188.50;5136591;28;20061;-71
2022/12/07 02:59:47;;;;;;;17.60;9.65;;;;;;;5.08;70.34;99181.13;5137595;28;20413;-71
2022/12/07 03:03:06;;;;;;;18.45;9.82;;;;;;;5.09;70.35;99194.16;5123409;28;20139;-72
2022/12/07 03:06:08;;;;;;;21.33;10.00;;;;;;;5.01;69.66;99175.47;5124222;29;20122;-71
2022/12/07 03:09:14;;;;;;;25.63;10.05;;;;;;;5.00;70.20;99171.16;5133487;28;20129;-71
2022/12/07 03:12:12;;;;;;;21.40;10.25;;;;;;;5.00;70.22;99183.44;5128742;28;20097;-72
2022/12/07 03:15:12;;;;;;;22.75;10.95;;;;;;;4.95;69.95;99173.25;5135819;28;20085;-71
2022/12/07 03:18:05;;;;;;;21.77;9.75;;;;;;;4.97;70.75;99184.50;5141934;28;20133;-71
2022/12/07 03:21:01;;;;;;;23.25;10.57;;;;;;;4.90;70.17;99183.22;5127978;28;20062;-71
2022/12/07 03:23:55;;;;;;;20.98;10.20;;;;;;;4.79;70.60;99189.19;5131541;28;20047;-71
2022/12/07 03:26:53;;;;;;;19.23;9.63;;;;;;;4.74;70.24;99179.94;5128815;28;20065;-71
2022/12/07 03:29:52;;;;;;;19.60;10.07;;;;;;;4.87;70.64;99173.78;5123502;28;20141;-72
2022/12/07 03:32:49;;;;;;;20.00;9.90;;;;;;;4.77;70.72;99172.72;5108988;28;20066;-72
2022/12/07 03:35:44;;;;;;;23.02;10.85;;;;;;;4.75;70.92;99158.00;5108569;29;20532;-73
2022/12/07 03:38:45;;;;;;;21.65;9.98;;;;;;;4.79;70.44;99172.59;5114413;28;20061;-72
2022/12/07 03:41:37;;;;;;;20.35;9.90;;;;;;;4.63;70.81;99173.59;5125946;28;20062;-71
2022/12/07 03:44:35;;;;;;;19.40;10.38;;;;;;;4.59;71.96;99163.41;5138097;28;20594;-73
2022/12/07 03:47:41;;;;;;;22.92;11.27;;;;;;;4.64;71.15;99164.81;5134675;28;20223;-72
2022/12/07 03:50:46;;;;;;;20.10;10.35;;;;;;;4.65;71.50;99163.84;5134638;28;20125;-71
2022/12/07 03:53:46;;;;;;;19.83;10.07;;;;;;;4.71;70.66;99137.19;5132739;28;20051;-72
2022/12/07 03:56:37;;;;;;;18.75;10.02;;;;;;;4.70;70.51;99119.75;5117871;28;20058;-73
2022/12/07 03:59:29;;;;;;;21.02;10.27;;;;;;;4.88;70.40;99129.94;5126521;28;20062;-72
2022/12/07 04:02:19;;;;;;;26.67;12.13;;;;;;;4.93;69.75;99118.19;5122924;28;20058;-72
2022/12/07 04:05:10;;;;;;;23.20;11.70;;;;;;;4.86;70.31;99126.56;5132175;28;20090;-73
2022/12/07 04:08:00;;;;;;;24.45;11.82;;;;;;;4.88;70.96;99133.41;5137894;28;20057;-72
2022/12/07 04:10:50;;;;;;;25.83;12.23;;;;;;;5.14;69.81;99136.88;5121925;28;20051;-72
2022/12/07 04:16:56;;;;;;;27.48;11.77;;;;;;;5.10;70.26;99093.34;5122269;28;20055;-73
2022/12/07 04:19:46;;;;;;;23.17;11.60;;;;;;;5.03;70.13;99115.72;5131129;28;20085;-73
2022/12/07 04:22:36;;;;;;;26.02;12.05;;;;;;;5.08;69.39;99108.38;5124860;28;20571;-73
2022/12/07 04:25:26;;;;;;;27.45;12.98;;;;;;;4.97;69.83;99125.81;5133884;28;20056;-72
2022/12/07 04:28:15;;;;;;;23.27;11.60;;;;;;;4.78;70.67;99121.84;5135853;28;20053;-72
2022/12/07 04:31:05;;;;;;;22.10;10.82;;;;;;;4.84;70.85;99131.09;5132574;28;20129;-71
2022/12/07 04:33:56;;;;;;;25.67;12.10;;;;;;;4.53;70.07;99143.66;5122726;28;20122;-72
2022/12/07 04:36:47;;;;;;;27.67;12.48;;;;;;;4.53;71.19;99151.53;5109779;29;20489;-72
2022/12/07 04:39:37;;;;;;;26.25;11.80;;;;;;;4.80;70.75;99148.84;5135328;28;20820;-72
2022/12/07 04:42:27;;;;;;;23.05;11.50;;;;;;;4.87;69.88;99131.72;5128359;28;20043;-73
2022/12/07 04:45:17;;;;;;;25.83;12.00;;;;;;;4.31;71.91;99141.63;5094743;29;20114;-73
2022/12/07 04:48:07;;;;;;;22.40;11.50;;;;;;;3.95;73.68;99157.97;5120228;28;20074;-74
2022/12/07 04:50:57;;;;;;;24.50;11.57;;;;;;;4.42;72.67;99151.41;5106924;29;20441;-72
2022/12/07 04:53:47;;;;;;;22.15;10.80;;;;;;;4.63;71.31;99141.25;5129314;28;20420;-72
2022/12/07 04:56:37;;;;;;;24.52;10.40;;;;;;;4.56;71.89;99137.34;5142097;28;20054;-72
2022/12/07 04:59:27;;;;;;;24.00;10.80;;;;;;;4.51;70.48;99142.09;5112620;29;20059;-72
2022/12/07 05:02:17;;;;;;;25.08;10.82;;;;;;;4.54;71.09;99147.97;5106837;29;20512;-71
2022/12/07 05:05:08;;;;;;;22.05;11.02;;;;;;;4.55;70.77;99168.03;5122306;29;20055;-72
2022/12/07 05:07:58;;;;;;;19.75;10.45;;;;;;;4.36;70.77;99159.69;5123025;28;20114;-71
2022/12/07 05:10:49;;;;;;;19.13;9.75;;;;;;;4.42;71.23;99168.00;5139933;28;20053;-73
2022/12/07 05:13:39;;;;;;;19.98;10.55;;;;;;;4.46;70.99;99173.88;5120407;29;20066;-73
2022/12/07 05:16:29;;;;;;;21.95;10.93;;;;;;;4.46;70.68;99158.97;5121926;28;20536;-71
2022/12/07 05:19:20;;;;;;;19.52;10.23;;;;;;;4.47;70.42;99165.91;5124837;28;20205;-71
2022/12/07 05:22:10;;;;;;;22.92;10.57;;;;;;;4.37;71.07;99140.34;5123851;28;20605;-71
2022/12/07 05:25:00;;;;;;;20.85;10.65;;;;;;;4.21;71.06;99144.00;5140337;28;20777;-71
2022/12/07 05:27:51;;;;;;;22.33;9.85;;;;;;;4.00;71.24;99119.97;5126350;28;20050;-71
2022/12/07 05:30:41;;;;;;;20.75;11.00;;;;;;;4.44;71.23;99154.78;5135882;28;20076;-71
2022/12/07 05:33:30;;;;;;;20.52;10.38;;;;;;;4.11;71.47;99116.69;5144987;28;20063;-69
2022/12/07 05:36:21;;;;;;;20.88;10.57;;;;;;;4.21;71.42;99143.16;5133129;28;20118;-68
2022/12/07 05:39:11;;;;;;;21.98;10.65;;;;;;;4.14;71.30;99142.72;5128931;28;20149;-70
2022/12/07 05:42:13;;;;;;;22.60;11.25;;;;;;;4.13;71.55;99138.38;5129888;28;20069;-69
2022/12/07 05:45:04;;;;;;;26.77;11.52;;;;;;;4.26;71.80;99153.34;5125205;28;20053;-70
2022/12/07 05:47:54;;;;;;;32.47;11.40;;;;;;;4.32;71.30;99155.56;5128497;28;20057;-69
2022/12/07 05:50:47;;;;;;;24.10;11.73;;;;;;;4.32;71.51;99158.19;5134613;28;20544;-70
2022/12/07 05:53:37;;;;;;;27.67;12.30;;;;;;;4.40;71.41;99163.78;5139519;28;20130;-69
2022/12/07 05:56:27;;;;;;;24.77;12.15;;;;;;;4.41;71.49;99149.72;5141334;28;20126;-68
2022/12/07 05:59:23;;;;;;;26.88;12.75;;;;;;;4.44;71.75;99155.63;5112417;28;20051;-69
2022/12/07 06:02:15;;;;;;;27.80;12.07;;;;;;;4.52;71.48;99149.84;5126287;28;20160;-68
2022/12/07 06:05:06;;;;;;;29.35;12.27;;;;;;;4.52;71.28;99152.47;5117450;28;20161;-69
2022/12/07 06:07:56;;;;;;;27.45;13.02;;;;;;;4.48;71.50;99140.50;5141408;28;20046;-69
2022/12/07 06:12:33;;;;;;;30.63;13.55;;;;;;;4.53;71.10;99142.81;5110065;28;20516;-69
2022/12/07 06:14:03;;;;;;;28.27;12.52;;;;;;;4.56;70.60;99138.19;5139168;28;20181;-71
2022/12/07 06:16:53;;;;;;;31.05;13.75;;;;;;;4.52;70.48;99144.59;5112466;28;20222;-70
2022/12/07 06:19:44;;;;;;;31.42;13.32;;;;;;;4.57;70.92;99134.66;5118761;28;20073;-69
2022/12/07 06:22:34;;;;;;;25.67;11.95;;;;;;;4.26;71.15;99150.72;5130392;28;20062;-72
2022/12/07 06:25:24;;;;;;;25.45;12.13;;;;;;;4.45;70.07;99146.78;5128195;28;20105;-70
2022/12/07 06:28:14;;;;;;;24.25;11.13;;;;;;;4.59;69.07;99160.78;5130831;28;20058;-71
2022/12/07 06:31:04;;;;;;;25.83;11.60;;;;;;;4.62;70.08;99169.31;5131815;28;20047;-70
2022/12/07 06:34:04;;;;;;;26.90;12.32;;;;;;;4.60;69.68;99167.72;5093734;28;20555;-70
2022/12/07 06:36:54;;;;;;;24.38;11.50;;;;;;;4.65;69.64;99171.72;5096746;28;20456;-70
2022/12/07 06:39:45;;;;;;;22.25;11.95;;;;;;;4.52;70.01;99146.38;5095015;28;20062;-70
2022/12/07 06:42:35;;;;;;;24.00;11.30;;;;;;;4.65;70.21;99166.47;5089555;28;20713;-70
2022/12/07 06:45:25;;;;;;;25.20;11.73;;;;;;;4.76;69.91;99170.16;5116155;28;20429;-70
2022/12/07 06:48:16;;;;;;;24.48;11.30;;;;;;;4.68;69.71;99163.66;5123688;28;20073;-70
2022/12/07 06:51:06;;;;;;;23.15;12.43;;;;;;;4.65;69.59;99163.00;5114291;28;20138;-70
2022/12/07 06:53:57;;;;;;;24.70;12.00;;;;;;;4.57;69.89;99147.78;5105891;28;20129;-70
2022/12/07 06:56:47;;;;;;;23.20;11.77;;;;;;;4.57;70.31;99162.66;5103797;28;20675;-70
2022/12/07 06:59:37;;;;;;;23.50;12.05;;;;;;;4.52;69.74;99162.97;5088623;28;20054;-71
2022/12/07 07:02:28;;;;;;;23.65;11.48;;;;;;;4.39;70.47;99133.22;5094840;28;20066;-69
2022/12/07 07:05:18;;;;;;;26.88;11.77;;;;;;;4.54;70.00;99155.00;5108843;28;20081;-70
2022/12/07 07:08:09;;;;;;;27.92;13.60;;;;;;;4.69;69.64;99172.34;5115360;28;20086;-72
2022/12/07 07:11:14;;;;;;;26.60;12.82;;;;;;;4.65;70.31;99168.25;5112107;28;20120;-70
2022/12/07 07:14:04;;;;;;;25.55;12.50;;;;;;;4.61;69.73;99162.38;5095049;28;20074;-70
2022/12/07 07:16:54;;;;;;;24.63;11.82;;;;;;;4.61;68.95;99154.50;5116010;28;20062;-71
2022/12/07 07:19:45;;;;;;;24.30;12.15;;;;;;;4.71;68.70;99167.84;5108792;28;20059;-69
2022/12/07 07:22:35;;;;;;;24.15;10.98;;;;;;;4.70;68.64;99177.53;5120733;28;20105;-71
2022/12/07 07:25:25;;;;;;;22.48;10.27;;;;;;;4.68;68.57;99176.78;5114745;28;20462;-70
2022/12/07 07:28:16;;;;;;;26.13;10.98;;;;;;;4.46;68.52;99129.25;5098141;28;20297;-69
2022/12/07 07:31:06;;;;;;;21.40;10.52;;;;;;;4.68;68.94;99171.53;5112575;28;20054;-70
2022/12/07 07:33:56;;;;;;;24.73;9.23;;;;;;;4.70;68.88;99176.66;5108217;28;20062;-70
2022/12/07 07:36:46;;;;;;;24.90;10.25;;;;;;;4.72;68.69;99164.28;5095397;28;20061;-69
2022/12/07 07:39:36;;;;;;;26.52;10.02;;;;;;;4.82;68.03;99173.22;5113994;28;20089;-70
2022/12/07 07:42:26;;;;;;;19.98;9.85;;;;;;;4.83;68.13;99171.44;5109453;28;20086;-69
2022/12/07 07:45:17;;;;;;;20.45;10.40;;;;;;;4.81;68.59;99173.34;5113166;28;20657;-69
2022/12/07 07:48:07;;;;;;;20.40;9.55;;;;;;;4.80;67.61;99177.75;5115199;28;20051;-69
2022/12/07 07:50:57;;;;;;;21.48;10.77;;;;;;;4.92;67.37;99179.53;5123571;28;20081;-69
2022/12/07 07:53:47;;;;;;;21.27;10.70;;;;;;;4.94;66.89;99174.19;5098909;28;20181;-69
2022/12/07 07:56:37;;;;;;;21.80;11.00;;;;;;;4.99;66.74;99181.75;5109621;28;20050;-69
2022/12/07 07:59:27;;;;;;;21.30;10.35;;;;;;;5.12;67.58;99193.13;5095453;28;20062;-69
2022/12/07 08:02:19;;;;;;;24.27;10.95;;;;;;;5.17;66.69;99186.59;5105736;28;20641;-69
2022/12/07 08:05:13;;;;;;;23.85;10.80;;;;;;;5.23;67.25;99189.75;5118804;28;20154;-69
2022/12/07 08:08:04;;;;;;;23.55;10.65;;;;;;;5.27;66.25;99191.25;5119295;28;20113;-69
2022/12/07 08:10:54;;;;;;;22.63;9.45;;;;;;;5.29;65.75;99186.69;5110134;28;20058;-68
2022/12/07 08:13:46;;;;;;;21.67;9.48;;;;;;;5.23;65.67;99173.97;5099816;28;20051;-68
2022/12/07 08:16:37;;;;;;;18.50;8.52;;;;;;;5.29;64.80;99194.59;5107086;28;20051;-69
2022/12/07 08:19:27;;;;;;;21.42;9.50;;;;;;;5.29;64.75;99179.66;5108492;28;20062;-69
2022/12/07 08:22:18;;;;;;;22.00;9.82;;;;;;;5.47;64.04;99193.34;5107279;28;20744;-69
2022/12/07 08:25:08;;;;;;;20.30;8.88;;;;;;;5.53;64.34;99192.91;5094554;28;20075;-69
2022/12/07 08:28:00;;;;;;;23.35;9.57;;;;;;;5.57;63.37;99199.63;5095083;28;20059;-68
2022/12/07 08:30:50;;;;;;;21.45;8.75;;;;;;;5.69;63.21;99200.53;5137927;23;20055;-68
2022/12/07 08:33:41;;;;;;;17.58;8.70;;;;;;;5.63;62.86;99182.59;5105643;28;20065;-68
2022/12/07 08:36:31;;;;;;;17.20;8.57;;;;;;;5.75;63.01;99207.16;5108266;28;20066;-68
2022/12/07 08:39:22;;;;;;;15.82;8.35;;;;;;;5.82;63.62;99195.25;5113784;28;20125;-69
2022/12/07 08:42:22;;;;;;;15.90;7.80;;;;;;;5.89;62.42;99204.41;5105416;28;20113;-69
2022/12/07 08:45:14;;;;;;;15.90;8.10;;;;;;;5.96;63.30;99197.81;5107934;28;20685;-70
2022/12/07 08:48:12;;;;;;;19.23;7.63;;;;;;;5.89;62.59;99193.88;5103653;28;20078;-68
2022/12/07 08:51:02;;;;;;;15.70;8.27;;;;;;;6.05;63.14;99198.91;5089643;28;20054;-69
2022/12/07 08:53:53;;;;;;;17.83;8.00;;;;;;;5.81;62.22;99194.44;5102173;28;20054;-69
2022/12/07 08:56:45;;;;;;;21.85;8.85;;;;;;;6.00;62.31;99203.69;5103020;28;20102;-67
2022/12/07 08:59:37;;;;;;;19.75;9.30;;;;;;;5.98;62.75;99209.03;5083579;28;20432;-68
2022/12/07 09:02:27;;;;;;;17.58;8.40;;;;;;;6.11;62.39;99204.59;5107083;28;20062;-68
2022/12/07 09:05:17;;;;;;;16.75;8.38;;;;;;;6.19;62.67;99196.16;5091171;28;20062;-68
2022/12/07 09:08:08;;;;;;;20.70;8.55;;;;;;;6.12;61.00;99189.63;5106602;28;20141;-68
2022/12/07 09:10:59;;;;;;;17.05;7.72;;;;;;;6.05;61.51;99205.03;5101264;28;20091;-68
2022/12/07 09:13:49;;;;;;;18.95;7.90;;;;;;;6.16;59.71;99191.09;5107451;28;20146;-68
2022/12/07 09:16:39;;;;;;;14.05;7.03;;;;;;;6.31;61.48;99197.03;5115387;28;20046;-67
2022/12/07 09:19:30;;;;;;;15.95;6.13;;;;;;;6.14;59.85;99200.06;5111395;28;20110;-68
2022/12/07 09:22:20;;;;;;;15.75;6.80;;;;;;;6.32;59.92;99182.91;5090420;28;20414;-68
2022/12/07 09:25:09;;;;;;;13.45;6.38;;;;;;;6.53;60.40;99199.78;5110174;28;20094;-68
2022/12/07 09:28:00;;;;;;;12.73;6.10;;;;;;;6.48;59.92;99191.38;5087611;28;20106;-67
2022/12/07 09:30:50;;;;;;;16.67;6.75;;;;;;;6.50;59.79;99194.75;5098134;28;20095;-68
2022/12/07 09:34:00;;;;;;;11.82;6.03;;;;;;;6.55;59.86;99197.84;5097489;28;20505;-68
2022/12/07 09:36:51;;;;;;;10.70;5.75;;;;;;;6.64;59.62;99198.16;5098376;28;20907;-68
2022/12/07 09:39:41;;;;;;;11.80;6.20;;;;;;;6.65;60.37;99202.44;5112284;28;20106;-68
2022/12/07 09:42:44;;;;;;;13.27;6.80;;;;;;;6.54;59.30;99204.09;5110734;28;21750;-67
2022/12/07 09:45:36;;;;;;;11.35;5.97;;;;;;;5.50;62.24;99197.53;5105420;28;20050;-70
2022/12/07 09:48:36;;;;;;;11.13;6.50;;;;;;;5.59;63.32;99202.97;5091339;28;20635;-68
2022/12/07 09:51:26;;;;;;;10.77;5.88;;;;;;;5.50;63.32;99201.00;5109212;28;20170;-68
2022/12/07 09:54:16;;;;;;;16.88;6.70;;;;;;;5.54;62.91;99194.59;5119342;28;20047;-68
2022/12/07 09:57:10;;;;;;;13.68;6.47;;;;;;;5.71;63.79;99201.28;5090644;28;20070;-68
2022/12/07 10:00:11;;;;;;;15.02;7.25;;;;;;;6.15;62.46;99192.03;5099216;28;20106;-68
2022/12/07 10:03:02;;;;;;;13.43;5.97;;;;;;;5.73;64.00;99188.00;5079293;28;20051;-68
2022/12/07 10:05:53;;;;;;;13.13;6.82;;;;;;;5.91;64.02;99180.63;5098720;28;20501;-69
2022/12/07 10:08:43;;;;;;;24.33;6.47;;;;;;;6.36;62.16;99181.75;5096903;28;20710;-69
2022/12/07 10:11:33;;;;;;;17.25;6.90;;;;;;;5.81;63.57;99162.84;5101962;28;20261;-68
2022/12/07 10:14:23;;;;;;;14.10;6.30;;;;;;;6.20;63.73;99163.59;5086874;28;20066;-69
2022/12/07 10:17:33;;;;;;;17.75;6.47;;;;;;;6.57;61.43;99169.63;5101841;28;20070;-68
2022/12/07 10:20:26;;;;;;;16.13;6.80;;;;;;;5.99;63.96;99173.03;5108705;28;20506;-69
2022/12/07 10:23:18;;;;;;;15.55;6.10;;;;;;;5.96;63.41;99166.22;5109473;28;20137;-69
2022/12/07 10:26:27;;;;;;;14.45;6.43;;;;;;;6.48;64.04;99165.03;5106213;28;20070;-69
2022/12/07 10:29:47;;;;;;;9.55;5.20;;;;;;;6.65;62.77;99171.66;5091530;28;20548;-70
2022/12/07 10:32:37;;;;;;;9.35;5.22;;;;;;;6.46;64.34;99172.22;5093801;28;20062;-69
2022/12/07 10:35:29;;;;;;;9.77;5.40;;;;;;;5.46;66.60;99162.69;5096622;28;20047;-69
2022/12/07 10:38:20;;;;;;;11.18;5.07;;;;;;;5.33;67.44;99152.22;5114744;28;20059;-69
2022/12/07 10:41:10;;;;;;;13.13;5.07;;;;;;;5.12;68.49;99162.41;5089916;28;20047;-69
2022/12/07 10:44:00;;;;;;;12.60;6.05;;;;;;;5.89;66.63;99159.66;5106394;28;20050;-69
2022/12/07 10:47:05;;;;;;;12.43;5.78;;;;;;;6.20;64.93;99145.16;5100703;28;20063;-69
2022/12/07 10:50:07;;;;;;;14.50;6.43;;;;;;;5.66;65.82;99158.66;5101150;28;20055;-68
2022/12/07 10:53:06;;;;;;;15.55;5.97;;;;;;;6.04;65.99;99161.22;5103816;28;20633;-69
2022/12/07 10:56:07;;;;;;;14.52;6.45;;;;;;;6.33;65.47;99150.38;5090606;28;20117;-69
2022/12/07 10:59:36;;;;;;;13.52;6.63;;;;;;;6.31;64.86;99142.56;5102032;28;20241;-68
2022/12/07 11:02:54;;;;;;;16.50;6.60;;;;;;;5.06;68.13;99149.69;5104223;28;20086;-69
2022/12/07 11:05:58;;;;;;;14.65;6.50;;;;;;;5.60;67.00;99151.22;5093353;28;20039;-69
2022/12/07 11:09:11;;;;;;;14.18;7.75;;;;;;;5.98;65.56;99143.25;5099810;28;20719;-68
2022/12/07 11:12:29;;;;;;;13.95;7.18;;;;;;;6.46;65.03;99143.25;5102203;28;20054;-69
2022/12/07 11:15:28;;;;;;;15.90;7.47;;;;;;;6.15;66.76;99130.66;5104390;28;20082;-70
2022/12/07 11:18:29;;;;;;;17.70;7.50;;;;;;;6.25;65.99;99140.38;5102766;28;20104;-69
2022/12/07 11:21:47;;;;;;;17.33;7.93;;;;;;;6.73;64.58;99121.06;5107387;28;20379;-68
2022/12/07 11:24:44;;;;;;;21.27;8.65;;;;;;;7.00;64.13;99132.13;5105322;28;20070;-69
2022/12/07 11:27:40;;;;;;;19.33;8.63;;;;;;;6.86;64.51;99129.69;5108778;28;20047;-68
2022/12/07 11:30:48;;;;;;;18.17;8.40;;;;;;;6.65;64.58;99126.03;5104795;28;20086;-70
2022/12/07 11:34:06;;;;;;;20.00;8.40;;;;;;;6.75;64.65;99121.75;5100183;28;20059;-69
2022/12/07 11:36:56;;;;;;;17.08;8.93;;;;;;;6.83;63.59;99111.50;5104426;28;20113;-68
2022/12/07 11:39:54;;;;;;;18.08;8.55;;;;;;;6.71;63.93;99117.69;5096141;28;20834;-68
2022/12/07 11:42:52;;;;;;;16.20;8.05;;;;;;;6.87;63.58;99118.19;5094992;29;20510;-69
2022/12/07 11:45:52;;;;;;;18.42;9.05;;;;;;;6.24;64.95;99117.66;5111544;28;20572;-68
2022/12/07 11:49:03;;;;;;;17.77;8.25;;;;;;;6.39;63.72;99118.31;5104048;28;20180;-69
2022/12/07 11:51:59;;;;;;;17.30;8.80;;;;;;;5.90;65.43;99090.31;5107724;28;20047;-68
2022/12/07 11:54:53;;;;;;;18.90;8.70;;;;;;;5.98;64.59;99106.41;5105253;28;20137;-68
2022/12/07 11:57:50;;;;;;;19.92;8.30;;;;;;;5.92;64.99;99112.06;5089525;28;20189;-68
2022/12/07 12:00:41;;;;;;;18.80;9.00;;;;;;;5.35;66.57;99089.84;5106825;28;20066;-68
2022/12/07 12:03:37;;;;;;;18.60;9.25;;;;;;;6.21;64.89;99103.88;5100694;28;20066;-70
2022/12/07 12:06:27;;;;;;;18.75;9.27;;;;;;;6.51;64.83;99096.31;5103867;28;20055;-70
2022/12/07 12:09:30;;;;;;;20.83;9.05;;;;;;;6.32;65.30;99070.53;5096332;28;20054;-70
2022/12/07 12:12:55;;;;;;;22.88;9.20;;;;;;;6.39;64.40;99089.34;5116357;28;20183;-69
2022/12/07 12:16:17;;;;;;;18.45;9.45;;;;;;;6.51;64.67;99090.22;5109649;28;20437;-69
2022/12/07 12:19:40;;;;;;;19.52;9.00;;;;;;;6.67;64.86;99084.63;5117523;28;20054;-69
2022/12/07 12:22:41;;;;;;;19.45;8.98;;;;;;;6.59;63.92;99072.88;5097135;28;20046;-70
2022/12/07 12:25:56;;;;;;;21.92;9.10;;;;;;;6.88;63.44;99080.31;5097806;29;20130;-69
2022/12/07 12:28:47;;;;;;;23.55;9.88;;;;;;;6.77;63.18;99085.59;5119706;28;20124;-70
2022/12/07 12:31:41;;;;;;;23.27;10.05;;;;;;;6.66;63.80;99073.25;5105366;28;20078;-70
2022/12/07 12:34:38;;;;;;;20.85;9.88;;;;;;;6.70;64.44;99081.75;5116999;29;20050;-69
2022/12/07 12:37:34;;;;;;;21.75;10.25;;;;;;;6.58;63.61;99075.59;5105807;29;20541;-69
2022/12/07 12:40:24;;;;;;;19.45;9.38;;;;;;;6.53;64.51;99083.03;5108882;28;20149;-71
2022/12/07 12:43:49;;;;;;;19.52;9.02;;;;;;;6.42;65.22;99081.19;5117561;28;20138;-70
2022/12/07 12:46:45;;;;;;;26.25;10.20;;;;;;;6.55;65.15;99066.13;5119658;28;20517;-70
2022/12/07 12:50:02;;;;;;;18.77;9.80;;;;;;;6.28;64.73;99069.06;5117320;28;20059;-69
2022/12/07 12:52:56;;;;;;;20.02;8.68;;;;;;;6.49;64.99;99074.53;5085489;28;20051;-69
2022/12/07 12:56:09;;;;;;;19.73;9.73;;;;;;;5.63;64.90;99069.47;5111868;28;20039;-69
2022/12/07 12:59:22;;;;;;;20.95;9.68;;;;;;;6.09;64.33;99066.97;5094434;29;20158;-71
2022/12/07 13:02:52;;;;;;;27.05;10.55;;;;;;;6.23;65.59;99068.59;5113449;28;20421;-68
2022/12/07 13:05:42;;;;;;;22.88;9.13;;;;;;;5.89;65.91;99055.25;5109757;28;20087;-68
2022/12/07 13:08:32;;;;;;;19.50;10.18;;;;;;;6.48;65.09;99054.38;5106154;28;20117;-68
2022/12/07 13:11:32;;;;;;;21.50;9.73;;;;;;;6.19;65.71;99047.84;5103214;28;20066;-68
2022/12/07 13:14:40;;;;;;;18.75;10.18;;;;;;;5.76;65.27;99048.34;5084517;28;20086;-68
2022/12/07 13:17:30;;;;;;;21.17;9.98;;;;;;;5.99;65.43;99042.25;5084236;29;20097;-68
2022/12/07 13:21:08;;;;;;;24.00;10.10;;;;;;;6.44;64.45;99052.13;5096154;28;20162;-68
2022/12/07 13:24:00;;;;;;;21.20;10.43;;;;;;;6.00;66.17;99037.88;5021647;29;20077;-68
2022/12/07 13:26:55;;;;;;;24.73;10.63;;;;;;;6.70;64.23;99039.59;5013026;29;20108;-68
2022/12/07 13:29:46;;;;;;;22.05;10.45;;;;;;;6.57;64.85;99037.91;5084943;28;20055;-69
2022/12/07 13:32:36;;;;;;;21.20;10.85;;;;;;;6.70;63.98;99021.97;5103216;28;20097;-68
2022/12/07 13:35:33;;;;;;;25.15;11.07;;;;;;;6.47;64.24;99036.09;5103414;28;20086;-68
2022/12/07 13:38:32;;;;;;;23.23;11.23;;;;;;;6.38;65.48;99037.63;5107156;28;20059;-68
2022/12/07 13:41:32;;;;;;;22.52;11.43;;;;;;;6.64;64.90;99040.91;5106930;28;20066;-68
2022/12/07 13:44:27;;;;;;;25.65;10.63;;;;;;;6.32;63.94;99033.66;5108705;28;20055;-69
2022/12/07 13:47:27;;;;;;;25.75;11.57;;;;;;;6.22;65.55;99037.09;5113565;28;20066;-69